sensor_id;sensor_type;location;lat;lon;timestamp;pressure;altitude;pressure_sealevel;temperature;humidity
57376;BME280;44805;45.048;5.062;2023-06-01T00:01:11;99762.44;;;16.83;100.00
57376;BME280;44805;45.048;5.062;2023-06-01T00:03:38;99777.25;;;16.92;100.00
57376;BME280;44805;45.048;5.062;2023-06-01T00:06:05;99691.88;;;16.29;100.00
57376;BME280;44805;45.048;5.062;2023-06-01T00:08:31;99778.22;;;16.69;100.00
57376;BME280;44805;45.048;5.062;2023-06-01T00:10:56;99791.03;;;16.81;100.00
57376;BME280;44805;45.048;5.062;2023-06-01T00:13:22;99776.28;;;16.63;100.00
57376;BME280;44805;45.048;5.062;2023-06-01T00:15:47;99801.13;;;16.70;100.00
57376;BME280;44805;45.048;5.062;2023-06-01T00:18:13;99779.78;;;16.64;100.00
57376;BME280;44805;45.048;5.062;2023-06-01T00:20:41;99766.97;;;16.53;100.00
57376;BME280;44805;45.048;5.062;2023-06-01T00:23:07;99777.69;;;16.59;100.00
57376;BME280;44805;45.048;5.062;2023-06-01T00:25:34;99760.88;;;16.59;100.00
57376;BME280;44805;45.048;5.062;2023-06-01T00:27:59;99795.41;;;16.74;100.00
57376;BME280;44805;45.048;5.062;2023-06-01T00:30:27;99727.88;;;16.32;100.00
57376;BME280;44805;45.048;5.062;2023-06-01T00:32:53;99793.50;;;16.67;100.00
57376;BME280;44805;45.048;5.062;2023-06-01T00:35:18;99795.44;;;16.59;100.00
57376;BME280;44805;45.048;5.062;2023-06-01T00:37:46;99758.84;;;16.39;100.00
57376;BME280;44805;45.048;5.062;2023-06-01T00:43:27;99723.28;;;16.25;100.00
57376;BME280;44805;45.048;5.062;2023-06-01T00:45:52;99779.41;;;16.67;100.00
57376;BME280;44805;45.048;5.062;2023-06-01T00:48:18;99783.00;;;16.59;100.00
57376;BME280;44805;45.048;5.062;2023-06-01T00:50:46;99779.31;;;16.60;100.00
57376;BME280;44805;45.048;5.062;2023-06-01T00:53:16;99771.91;;;16.56;100.00
57376;BME280;44805;45.048;5.062;2023-06-01T00:59:12;99740.97;;;16.33;100.00
57376;BME280;44805;45.048;5.062;2023-06-01T01:01:37;99719.47;;;16.13;100.00
57376;BME280;44805;45.048;5.062;2023-06-01T01:04:03;99775.38;;;16.56;100.00
57376;BME280;44805;45.048;5.062;2023-06-01T01:12:00;99710.59;;;16.06;100.00
57376;BME280;44805;45.048;5.062;2023-06-01T01:14:59;99773.03;;;16.46;100.00
57376;BME280;44805;45.048;5.062;2023-06-01T01:17:31;99740.34;;;16.16;100.00
57376;BME280;44805;45.048;5.062;2023-06-01T01:20:02;99715.09;;;15.91;100.00
57376;BME280;44805;45.048;5.062;2023-06-01T01:22:58;99763.34;;;16.24;100.00
57376;BME280;44805;45.048;5.062;2023-06-01T01:30:54;99755.75;;;16.06;100.00
57376;BME280;44805;45.048;5.062;2023-06-01T01:33:21;99772.06;;;16.03;100.00
57376;BME280;44805;45.048;5.062;2023-06-01T01:35:48;99767.09;;;16.15;100.00
57376;BME280;44805;45.048;5.062;2023-06-01T01:38:14;99741.81;;;16.04;100.00
57376;BME280;44805;45.048;5.062;2023-06-01T01:40:41;99733.03;;;16.03;100.00
57376;BME280;44805;45.048;5.062;2023-06-01T01:43:07;99746.66;;;16.15;100.00
57376;BME280;44805;45.048;5.062;2023-06-01T01:45:33;99750.88;;;16.24;100.00
57376;BME280;44805;45.048;5.062;2023-06-01T01:48:32;99747.19;;;16.25;100.00
57376;BME280;44805;45.048;5.062;2023-06-01T01:51:10;99782.28;;;16.36;100.00
57376;BME280;44805;45.048;5.062;2023-06-01T01:53:36;99742.19;;;16.01;100.00
57376;BME280;44805;45.048;5.062;2023-06-01T01:59:26;99771.31;;;16.09;100.00
57376;BME280;44805;45.048;5.062;2023-06-01T02:01:52;99712.34;;;15.69;100.00
57376;BME280;44805;45.048;5.062;2023-06-01T02:04:18;99767.94;;;16.00;100.00
57376;BME280;44805;45.048;5.062;2023-06-01T02:06:43;99763.44;;;16.01;100.00
57376;BME280;44805;45.048;5.062;2023-06-01T02:09:09;99730.66;;;15.94;100.00
57376;BME280;44805;45.048;5.062;2023-06-01T02:11:35;99774.63;;;16.11;100.00
57376;BME280;44805;45.048;5.062;2023-06-01T02:14:01;99733.69;;;15.76;100.00
57376;BME280;44805;45.048;5.062;2023-06-01T02:16:26;99722.63;;;15.72;100.00
57376;BME280;44805;45.048;5.062;2023-06-01T02:18:52;99779.72;;;16.27;100.00
57376;BME280;44805;45.048;5.062;2023-06-01T02:21:18;99672.59;;;15.61;100.00
57376;BME280;44805;45.048;5.062;2023-06-01T02:23:44;99717.47;;;15.86;100.00
57376;BME280;44805;45.048;5.062;2023-06-01T02:26:10;99772.50;;;16.21;100.00
57376;BME280;44805;45.048;5.062;2023-06-01T02:28:39;99693.31;;;15.80;99.98
57376;BME280;44805;45.048;5.062;2023-06-01T02:31:08;99772.88;;;16.18;100.00
57376;BME280;44805;45.048;5.062;2023-06-01T02:33:34;99742.91;;;15.95;100.00
57376;BME280;44805;45.048;5.062;2023-06-01T02:36:00;99707.31;;;15.74;100.00
57376;BME280;44805;45.048;5.062;2023-06-01T02:38:26;99728.09;;;15.86;100.00
57376;BME280;44805;45.048;5.062;2023-06-01T02:40:51;99730.56;;;15.87;100.00
57376;BME280;44805;45.048;5.062;2023-06-01T02:43:17;99757.13;;;16.02;100.00
57376;BME280;44805;45.048;5.062;2023-06-01T02:45:42;99702.44;;;15.63;100.00
57376;BME280;44805;45.048;5.062;2023-06-01T02:48:08;99699.63;;;15.41;100.00
57376;BME280;44805;45.048;5.062;2023-06-01T02:50:33;99713.94;;;15.40;100.00
57376;BME280;44805;45.048;5.062;2023-06-01T02:52:59;99732.28;;;15.65;100.00
57376;BME280;44805;45.048;5.062;2023-06-01T02:55:24;99676.50;;;15.35;100.00
57376;BME280;44805;45.048;5.062;2023-06-01T02:57:50;99706.91;;;15.62;100.00
57376;BME280;44805;45.048;5.062;2023-06-01T03:00:15;99720.28;;;15.69;100.00
57376;BME280;44805;45.048;5.062;2023-06-01T03:02:45;99737.97;;;15.92;100.00
57376;BME280;44805;45.048;5.062;2023-06-01T03:05:10;99748.16;;;16.03;100.00
57376;BME280;44805;45.048;5.062;2023-06-01T03:07:43;99749.97;;;16.02;100.00
57376;BME280;44805;45.048;5.062;2023-06-01T03:10:10;99738.44;;;15.95;100.00
57376;BME280;44805;45.048;5.062;2023-06-01T03:12:36;99696.06;;;15.72;100.00
57376;BME280;44805;45.048;5.062;2023-06-01T03:15:02;99721.75;;;15.72;100.00
57376;BME280;44805;45.048;5.062;2023-06-01T03:17:27;99731.19;;;15.74;100.00
57376;BME280;44805;45.048;5.062;2023-06-01T03:19:53;99722.81;;;15.48;100.00
57376;BME280;44805;45.048;5.062;2023-06-01T03:22:18;99722.16;;;15.46;100.00
57376;BME280;44805;45.048;5.062;2023-06-01T03:24:44;99678.03;;;15.15;100.00
57376;BME280;44805;45.048;5.062;2023-06-01T03:30:21;99751.47;;;15.67;100.00
57376;BME280;44805;45.048;5.062;2023-06-01T03:32:47;99767.72;;;15.87;100.00
57376;BME280;44805;45.048;5.062;2023-06-01T03:35:13;99762.59;;;15.71;100.00
57376;BME280;44805;45.048;5.062;2023-06-01T03:37:40;99760.81;;;15.63;100.00
57376;BME280;44805;45.048;5.062;2023-06-01T03:40:07;99749.63;;;15.53;100.00
57376;BME280;44805;45.048;5.062;2023-06-01T03:42:47;99752.75;;;15.56;100.00
57376;BME280;44805;45.048;5.062;2023-06-01T03:45:14;99758.28;;;15.47;100.00
57376;BME280;44805;45.048;5.062;2023-06-01T03:47:40;99757.19;;;15.41;100.00
57376;BME280;44805;45.048;5.062;2023-06-01T03:50:08;99690.88;;;15.03;100.00
57376;BME280;44805;45.048;5.062;2023-06-01T03:52:34;99766.91;;;15.49;100.00
57376;BME280;44805;45.048;5.062;2023-06-01T03:55:02;99766.53;;;15.37;100.00
57376;BME280;44805;45.048;5.062;2023-06-01T03:57:30;99722.34;;;15.06;100.00
57376;BME280;44805;45.048;5.062;2023-06-01T03:59:55;99754.50;;;15.26;100.00
57376;BME280;44805;45.048;5.062;2023-06-01T04:02:21;99713.53;;;14.91;100.00
57376;BME280;44805;45.048;5.062;2023-06-01T04:04:48;99732.41;;;15.11;100.00
57376;BME280;44805;45.048;5.062;2023-06-01T04:07:14;99707.88;;;14.94;100.00
57376;BME280;44805;45.048;5.062;2023-06-01T04:09:43;99774.28;;;15.38;100.00
57376;BME280;44805;45.048;5.062;2023-06-01T04:12:09;99776.66;;;15.33;100.00
57376;BME280;44805;45.048;5.062;2023-06-01T04:14:36;99769.41;;;15.27;100.00
57376;BME280;44805;45.048;5.062;2023-06-01T04:17:02;99757.50;;;15.23;100.00
57376;BME280;44805;45.048;5.062;2023-06-01T04:19:27;99766.25;;;15.32;100.00
57376;BME280;44805;45.048;5.062;2023-06-01T04:21:53;99748.03;;;15.06;100.00
57376;BME280;44805;45.048;5.062;2023-06-01T04:24:18;99728.78;;;14.89;100.00
57376;BME280;44805;45.048;5.062;2023-06-01T04:26:44;99748.88;;;15.06;100.00
57376;BME280;44805;45.048;5.062;2023-06-01T04:29:09;99769.81;;;15.16;100.00
57376;BME280;44805;45.048;5.062;2023-06-01T04:31:37;99788.06;;;15.19;100.00
57376;BME280;44805;45.048;5.062;2023-06-01T04:34:03;99742.38;;;15.09;100.00
57376;BME280;44805;45.048;5.062;2023-06-01T04:36:32;99757.34;;;15.25;100.00
57376;BME280;44805;45.048;5.062;2023-06-01T04:38:58;99727.91;;;14.96;100.00
57376;BME280;44805;45.048;5.062;2023-06-01T04:41:27;99709.03;;;14.91;100.00
57376;BME280;44805;45.048;5.062;2023-06-01T04:43:54;99743.09;;;15.03;100.00
57376;BME280;44805;45.048;5.062;2023-06-01T04:46:23;99781.13;;;15.33;100.00
57376;BME280;44805;45.048;5.062;2023-06-01T04:48:51;99770.25;;;15.28;100.00
57376;BME280;44805;45.048;5.062;2023-06-01T04:51:17;99742.97;;;14.96;100.00
57376;BME280;44805;45.048;5.062;2023-06-01T04:53:48;99794.94;;;15.28;100.00
57376;BME280;44805;45.048;5.062;2023-06-01T04:59:45;99743.88;;;14.88;100.00
57376;BME280;44805;45.048;5.062;2023-06-01T05:02:11;99787.34;;;15.25;100.00
57376;BME280;44805;45.048;5.062;2023-06-01T05:04:37;99745.06;;;15.01;100.00
57376;BME280;44805;45.048;5.062;2023-06-01T05:07:03;99722.75;;;14.95;100.00
57376;BME280;44805;45.048;5.062;2023-06-01T05:09:28;99783.63;;;15.34;100.00
57376;BME280;44805;45.048;5.062;2023-06-01T05:15:04;99786.81;;;15.07;100.00
57376;BME280;44805;45.048;5.062;2023-06-01T05:17:30;99749.03;;;15.05;100.00
57376;BME280;44805;45.048;5.062;2023-06-01T05:19:56;99771.00;;;15.36;100.00
57376;BME280;44805;45.048;5.062;2023-06-01T05:22:23;99789.16;;;15.48;100.00
57376;BME280;44805;45.048;5.062;2023-06-01T05:24:48;99789.88;;;15.56;100.00
57376;BME280;44805;45.048;5.062;2023-06-01T05:27:15;99792.66;;;15.63;100.00
57376;BME280;44805;45.048;5.062;2023-06-01T05:29:41;99738.81;;;15.39;100.00
57376;BME280;44805;45.048;5.062;2023-06-01T05:32:07;99768.50;;;15.58;100.00
57376;BME280;44805;45.048;5.062;2023-06-01T05:34:32;99790.44;;;15.90;100.00
57376;BME280;44805;45.048;5.062;2023-06-01T05:36:58;99736.72;;;15.88;100.00
57376;BME280;44805;45.048;5.062;2023-06-01T05:39:23;99678.81;;;15.53;100.00
57376;BME280;44805;45.048;5.062;2023-06-01T05:45:09;99758.56;;;16.19;98.50
57376;BME280;44805;45.048;5.062;2023-06-01T05:47:35;99796.09;;;16.46;99.03
57376;BME280;44805;45.048;5.062;2023-06-01T05:50:00;99724.97;;;16.26;97.17
57376;BME280;44805;45.048;5.062;2023-06-01T05:52:26;99768.44;;;16.40;98.18
57376;BME280;44805;45.048;5.062;2023-06-01T05:54:51;99710.44;;;15.93;97.83
57376;BME280;44805;45.048;5.062;2023-06-01T05:57:19;99718.72;;;16.19;97.44
57376;BME280;44805;45.048;5.062;2023-06-01T05:59:45;99723.66;;;16.22;97.08
57376;BME280;44805;45.048;5.062;2023-06-01T06:02:12;99797.81;;;16.68;96.82
57376;BME280;44805;45.048;5.062;2023-06-01T06:04:39;99789.41;;;16.80;96.52
57376;BME280;44805;45.048;5.062;2023-06-01T06:07:04;99730.19;;;16.56;95.15
57376;BME280;44805;45.048;5.062;2023-06-01T06:09:30;99773.06;;;16.83;95.62
57376;BME280;44805;45.048;5.062;2023-06-01T06:18:39;99769.34;;;17.20;93.33
57376;BME280;44805;45.048;5.062;2023-06-01T06:21:05;99723.38;;;17.05;92.98
57376;BME280;44805;45.048;5.062;2023-06-01T06:23:30;99725.13;;;17.19;92.54
57376;BME280;44805;45.048;5.062;2023-06-01T06:26:22;99784.19;;;17.57;91.49
57376;BME280;44805;45.048;5.062;2023-06-01T06:28:48;99754.91;;;17.57;91.39
57376;BME280;44805;45.048;5.062;2023-06-01T06:31:13;99734.38;;;17.51;90.47
57376;BME280;44805;45.048;5.062;2023-06-01T06:33:39;99731.06;;;17.71;90.22
57376;BME280;44805;45.048;5.062;2023-06-01T06:36:04;99788.16;;;18.25;89.54
57376;BME280;44805;45.048;5.062;2023-06-01T06:38:30;99763.47;;;18.09;90.28
57376;BME280;44805;45.048;5.062;2023-06-01T06:40:55;99789.84;;;18.39;88.25
57376;BME280;44805;45.048;5.062;2023-06-01T06:43:22;99798.69;;;18.39;88.91
57376;BME280;44805;45.048;5.062;2023-06-01T06:45:47;99782.97;;;18.58;88.32
57376;BME280;44805;45.048;5.062;2023-06-01T06:48:13;99777.25;;;18.74;87.29
57376;BME280;44805;45.048;5.062;2023-06-01T06:50:38;99721.59;;;18.44;86.05
57376;BME280;44805;45.048;5.062;2023-06-01T06:53:06;99765.22;;;18.78;85.98
57376;BME280;44805;45.048;5.062;2023-06-01T06:55:34;99725.53;;;18.62;84.48
57376;BME280;44805;45.048;5.062;2023-06-01T07:01:22;99751.47;;;18.81;85.94
57376;BME280;44805;45.048;5.062;2023-06-01T07:03:51;99722.88;;;18.62;86.26
57376;BME280;44805;45.048;5.062;2023-06-01T07:06:17;99774.91;;;18.99;85.38
57376;BME280;44805;45.048;5.062;2023-06-01T07:08:43;99760.31;;;18.89;84.86
57376;BME280;44805;45.048;5.062;2023-06-01T07:14:30;99759.97;;;18.57;84.57
57376;BME280;44805;45.048;5.062;2023-06-01T07:16:56;99787.41;;;18.85;85.45
57376;BME280;44805;45.048;5.062;2023-06-01T07:19:22;99707.88;;;18.48;85.16
57376;BME280;44805;45.048;5.062;2023-06-01T07:21:47;99695.16;;;18.50;85.02
57376;BME280;44805;45.048;5.062;2023-06-01T07:24:13;99788.25;;;18.99;84.38
57376;BME280;44805;45.048;5.062;2023-06-01T07:26:57;99688.38;;;18.54;83.19
57376;BME280;44805;45.048;5.062;2023-06-01T07:29:22;99788.88;;;19.15;83.38
57376;BME280;44805;45.048;5.062;2023-06-01T07:31:50;99696.97;;;18.49;82.98
57376;BME280;44805;45.048;5.062;2023-06-01T07:34:17;99725.63;;;18.89;83.46
57376;BME280;44805;45.048;5.062;2023-06-01T07:36:42;99707.91;;;18.74;83.57
57376;BME280;44805;45.048;5.062;2023-06-01T07:39:13;99733.84;;;18.94;82.93
57376;BME280;44805;45.048;5.062;2023-06-01T07:48:28;99780.09;;;19.74;80.79
57376;BME280;44805;45.048;5.062;2023-06-01T07:50:54;99733.06;;;19.46;81.75
57376;BME280;44805;45.048;5.062;2023-06-01T07:53:23;99756.06;;;19.67;79.79
57376;BME280;44805;45.048;5.062;2023-06-01T07:55:48;99740.84;;;19.68;78.94
57376;BME280;44805;45.048;5.062;2023-06-01T07:58:52;99778.41;;;20.06;79.41
57376;BME280;44805;45.048;5.062;2023-06-01T08:01:18;99775.69;;;20.20;78.64
57376;BME280;44805;45.048;5.062;2023-06-01T08:03:44;99778.53;;;20.38;76.35
57376;BME280;44805;45.048;5.062;2023-06-01T08:06:10;99776.22;;;20.42;76.75
57376;BME280;44805;45.048;5.062;2023-06-01T08:08:38;99784.25;;;20.48;76.21
57376;BME280;44805;45.048;5.062;2023-06-01T08:11:04;99774.94;;;20.57;77.42
57376;BME280;44805;45.048;5.062;2023-06-01T08:13:30;99770.97;;;20.73;75.36
57376;BME280;44805;45.048;5.062;2023-06-01T08:15:55;99729.09;;;20.47;74.85
57376;BME280;44805;45.048;5.062;2023-06-01T08:18:20;99772.56;;;20.81;74.37
57376;BME280;44805;45.048;5.062;2023-06-01T08:20:47;99748.81;;;20.59;74.85
57376;BME280;44805;45.048;5.062;2023-06-01T08:23:15;99716.94;;;20.51;74.94
57376;BME280;44805;45.048;5.062;2023-06-01T08:25:47;99773.00;;;20.78;74.34
57376;BME280;44805;45.048;5.062;2023-06-01T08:31:53;99765.09;;;20.96;75.40
57376;BME280;44805;45.048;5.062;2023-06-01T08:34:19;99765.31;;;20.88;73.62
57376;BME280;44805;45.048;5.062;2023-06-01T08:36:45;99729.84;;;20.68;74.18
57376;BME280;44805;45.048;5.062;2023-06-01T08:39:22;99744.16;;;20.80;74.63
57376;BME280;44805;45.048;5.062;2023-06-01T08:45:04;99775.78;;;21.28;72.81
57376;BME280;44805;45.048;5.062;2023-06-01T08:47:32;99744.63;;;21.34;73.29
57376;BME280;44805;45.048;5.062;2023-06-01T08:49:58;99684.59;;;20.91;72.23
57376;BME280;44805;45.048;5.062;2023-06-01T08:52:26;99771.59;;;21.64;71.25
57376;BME280;44805;45.048;5.062;2023-06-01T08:54:54;99710.16;;;21.44;71.17
57376;BME280;44805;45.048;5.062;2023-06-01T08:57:20;99754.34;;;21.78;71.96
57376;BME280;44805;45.048;5.062;2023-06-01T08:59:46;99742.38;;;21.81;70.04
57376;BME280;44805;45.048;5.062;2023-06-01T09:02:13;99747.34;;;21.77;70.42
57376;BME280;44805;45.048;5.062;2023-06-01T09:04:40;99766.41;;;21.87;70.03
57376;BME280;44805;45.048;5.062;2023-06-01T09:07:08;99666.28;;;21.45;68.53
57376;BME280;44805;45.048;5.062;2023-06-01T09:09:34;99664.63;;;21.44;69.07
57376;BME280;44805;45.048;5.062;2023-06-01T09:12:27;99760.06;;;22.25;69.38
57376;BME280;44805;45.048;5.062;2023-06-01T09:17:35;99728.00;;;22.30;68.52
57376;BME280;44805;45.048;5.062;2023-06-01T09:20:01;99753.59;;;22.63;67.89
57376;BME280;44805;45.048;5.062;2023-06-01T09:22:40;99751.69;;;22.82;68.33
57376;BME280;44805;45.048;5.062;2023-06-01T09:25:06;99657.28;;;22.43;66.91
57376;BME280;44805;45.048;5.062;2023-06-01T09:30:54;99688.81;;;22.90;65.91
57376;BME280;44805;45.048;5.062;2023-06-01T09:33:19;99706.38;;;23.28;64.65
57376;BME280;44805;45.048;5.062;2023-06-01T09:35:49;99740.38;;;23.46;63.83
57376;BME280;44805;45.048;5.062;2023-06-01T09:38:25;99742.59;;;23.60;63.36
57376;BME280;44805;45.048;5.062;2023-06-01T09:41:03;99736.22;;;23.73;61.61
57376;BME280;44805;45.048;5.062;2023-06-01T09:50:03;99684.91;;;23.75;58.90
57376;BME280;44805;45.048;5.062;2023-06-01T09:52:29;99732.94;;;23.71;58.30
57376;BME280;44805;45.048;5.062;2023-06-01T09:54:54;99660.00;;;23.56;56.88
57376;BME280;44805;45.048;5.062;2023-06-01T09:57:27;99645.78;;;24.08;54.95
57376;BME280;44805;45.048;5.062;2023-06-01T09:59:54;99725.69;;;24.47;54.91
57376;BME280;44805;45.048;5.062;2023-06-01T10:02:24;99646.06;;;23.94;54.73
57376;BME280;44805;45.048;5.062;2023-06-01T10:04:54;99729.16;;;24.08;54.52
57376;BME280;44805;45.048;5.062;2023-06-01T10:07:28;99679.91;;;24.76;53.09
57376;BME280;44805;45.048;5.062;2023-06-01T10:09:55;99714.03;;;25.04;52.35
57376;BME280;44805;45.048;5.062;2023-06-01T10:18:59;99716.59;;;25.28;52.15
57376;BME280;44805;45.048;5.062;2023-06-01T10:21:26;99624.56;;;25.02;51.59
57376;BME280;44805;45.048;5.062;2023-06-01T10:23:51;99659.34;;;25.38;50.20
57376;BME280;44805;45.048;5.062;2023-06-01T10:26:18;99702.06;;;26.07;50.23
57376;BME280;44805;45.048;5.062;2023-06-01T10:28:46;99655.72;;;25.88;49.90
57376;BME280;44805;45.048;5.062;2023-06-01T10:31:36;99653.28;;;25.69;49.02
57376;BME280;44805;45.048;5.062;2023-06-01T10:34:09;99619.63;;;25.50;50.07
57376;BME280;44805;45.048;5.062;2023-06-01T10:39:31;99695.97;;;26.16;48.26
57376;BME280;44805;45.048;5.062;2023-06-01T10:42:34;99647.63;;;25.88;48.97
57376;BME280;44805;45.048;5.062;2023-06-01T10:45:40;99655.31;;;26.50;47.70
57376;BME280;44805;45.048;5.062;2023-06-01T10:48:08;99647.19;;;26.50;47.91
57376;BME280;44805;45.048;5.062;2023-06-01T10:50:35;99673.38;;;26.72;48.53
57376;BME280;44805;45.048;5.062;2023-06-01T10:53:24;99669.59;;;26.73;47.48
57376;BME280;44805;45.048;5.062;2023-06-01T10:58:34;99654.09;;;26.63;47.52
57376;BME280;44805;45.048;5.062;2023-06-01T11:01:00;99621.38;;;26.32;46.39
57376;BME280;44805;45.048;5.062;2023-06-01T11:03:44;99667.34;;;26.65;46.97
57376;BME280;44805;45.048;5.062;2023-06-01T11:06:30;99649.72;;;26.89;46.74
57376;BME280;44805;45.048;5.062;2023-06-01T11:08:58;99667.53;;;26.85;45.45
57376;BME280;44805;45.048;5.062;2023-06-01T11:17:37;99585.75;;;27.42;43.40
57376;BME280;44805;45.048;5.062;2023-06-01T11:20:05;99644.34;;;27.79;44.87
57376;BME280;44805;45.048;5.062;2023-06-01T11:22:37;99568.56;;;27.11;44.32
57376;BME280;44805;45.048;5.062;2023-06-01T11:25:06;99581.75;;;27.50;45.78
57376;BME280;44805;45.048;5.062;2023-06-01T11:27:33;99607.44;;;28.21;44.18
57376;BME280;44805;45.048;5.062;2023-06-01T11:29:59;99645.34;;;28.31;42.31
57376;BME280;44805;45.048;5.062;2023-06-01T11:32:28;99642.94;;;28.34;43.12
57376;BME280;44805;45.048;5.062;2023-06-01T11:34:53;99644.81;;;27.61;43.41
57376;BME280;44805;45.048;5.062;2023-06-01T11:37:20;99607.69;;;26.39;43.04
57376;BME280;44805;45.048;5.062;2023-06-01T11:39:47;99593.78;;;27.22;41.77
57376;BME280;44805;45.048;5.062;2023-06-01T11:42:14;99603.00;;;26.89;42.42
57376;BME280;44805;45.048;5.062;2023-06-01T11:48:11;99649.22;;;27.30;40.94
57376;BME280;44805;45.048;5.062;2023-06-01T11:50:37;99642.25;;;27.01;40.89
57376;BME280;44805;45.048;5.062;2023-06-01T11:53:11;99605.13;;;27.19;41.17
57376;BME280;44805;45.048;5.062;2023-06-01T11:55:49;99631.84;;;26.83;42.58
57376;BME280;44805;45.048;5.062;2023-06-01T12:01:42;99609.59;;;27.03;42.17
57376;BME280;44805;45.048;5.062;2023-06-01T12:04:12;99618.00;;;27.12;41.56
57376;BME280;44805;45.048;5.062;2023-06-01T12:06:37;99565.75;;;26.96;39.97
57376;BME280;44805;45.048;5.062;2023-06-01T12:09:03;99573.75;;;26.80;40.06
57376;BME280;44805;45.048;5.062;2023-06-01T12:11:32;99572.63;;;27.14;41.41
57376;BME280;44805;45.048;5.062;2023-06-01T12:13:58;99558.00;;;27.67;39.01
57376;BME280;44805;45.048;5.062;2023-06-01T12:16:25;99565.72;;;27.33;40.66
57376;BME280;44805;45.048;5.062;2023-06-01T12:19:13;99544.50;;;27.10;39.96
57376;BME280;44805;45.048;5.062;2023-06-01T12:21:39;99555.13;;;27.84;40.35
57376;BME280;44805;45.048;5.062;2023-06-01T12:24:05;99593.63;;;28.17;40.67
57376;BME280;44805;45.048;5.062;2023-06-01T12:26:37;99583.41;;;28.65;41.24
57376;BME280;44805;45.048;5.062;2023-06-01T12:29:02;99525.41;;;28.41;40.09
57376;BME280;44805;45.048;5.062;2023-06-01T12:31:28;99538.41;;;28.69;39.66
57376;BME280;44805;45.048;5.062;2023-06-01T12:33:54;99550.59;;;28.77;38.99
57376;BME280;44805;45.048;5.062;2023-06-01T12:36:34;99541.69;;;28.46;38.54
57376;BME280;44805;45.048;5.062;2023-06-01T12:39:02;99516.47;;;28.66;40.56
57376;BME280;44805;45.048;5.062;2023-06-01T12:41:32;99555.19;;;28.82;40.30
57376;BME280;44805;45.048;5.062;2023-06-01T12:44:22;99573.84;;;29.24;38.00
57376;BME280;44805;45.048;5.062;2023-06-01T12:46:55;99578.94;;;29.31;39.35
57376;BME280;44805;45.048;5.062;2023-06-01T12:49:22;99521.09;;;28.34;39.63
57376;BME280;44805;45.048;5.062;2023-06-01T12:51:48;99541.66;;;28.20;41.28
57376;BME280;44805;45.048;5.062;2023-06-01T12:54:21;99575.50;;;28.38;40.72
57376;BME280;44805;45.048;5.062;2023-06-01T12:56:50;99511.88;;;28.05;40.20
57376;BME280;44805;45.048;5.062;2023-06-01T12:59:16;99533.25;;;28.06;41.34
57376;BME280;44805;45.048;5.062;2023-06-01T13:01:42;99554.59;;;27.87;43.46
57376;BME280;44805;45.048;5.062;2023-06-01T13:04:08;99475.94;;;27.21;43.61
57376;BME280;44805;45.048;5.062;2023-06-01T13:06:33;99503.56;;;27.38;43.39
57376;BME280;44805;45.048;5.062;2023-06-01T13:09:03;99480.28;;;27.27;44.02
57376;BME280;44805;45.048;5.062;2023-06-01T13:11:29;99487.31;;;27.28;42.77
57376;BME280;44805;45.048;5.062;2023-06-01T13:13:58;99504.72;;;27.73;43.04
57376;BME280;44805;45.048;5.062;2023-06-01T13:16:26;99514.03;;;28.18;41.51
57376;BME280;44805;45.048;5.062;2023-06-01T13:18:52;99474.22;;;28.24;40.35
57376;BME280;44805;45.048;5.062;2023-06-01T13:21:18;99460.69;;;28.49;38.87
57376;BME280;44805;45.048;5.062;2023-06-01T13:23:44;99480.69;;;28.84;41.37
57376;BME280;44805;45.048;5.062;2023-06-01T13:26:10;99501.00;;;28.87;41.85
57376;BME280;44805;45.048;5.062;2023-06-01T13:28:35;99471.25;;;28.35;40.44
57376;BME280;44805;45.048;5.062;2023-06-01T13:31:01;99537.34;;;28.34;40.49
57376;BME280;44805;45.048;5.062;2023-06-01T13:33:27;99499.94;;;28.21;41.18
57376;BME280;44805;45.048;5.062;2023-06-01T13:35:52;99477.50;;;28.10;40.37
57376;BME280;44805;45.048;5.062;2023-06-01T13:38:18;99519.44;;;28.64;40.87
57376;BME280;44805;45.048;5.062;2023-06-01T13:40:43;99498.31;;;28.71;41.25
57376;BME280;44805;45.048;5.062;2023-06-01T13:43:09;99453.13;;;28.21;39.75
57376;BME280;44805;45.048;5.062;2023-06-01T13:45:34;99467.19;;;28.38;39.73
57376;BME280;44805;45.048;5.062;2023-06-01T13:48:00;99442.47;;;27.47;39.15
57376;BME280;44805;45.048;5.062;2023-06-01T13:50:29;99406.28;;;27.54;38.93
57376;BME280;44805;45.048;5.062;2023-06-01T13:52:55;99445.00;;;28.21;40.16
57376;BME280;44805;45.048;5.062;2023-06-01T13:55:20;99503.75;;;28.51;39.98
57376;BME280;44805;45.048;5.062;2023-06-01T13:58:23;99495.88;;;28.70;40.41
57376;BME280;44805;45.048;5.062;2023-06-01T14:00:48;99457.72;;;28.35;38.66
57376;BME280;44805;45.048;5.062;2023-06-01T14:03:14;99469.09;;;28.27;37.50
57376;BME280;44805;45.048;5.062;2023-06-01T14:05:39;99487.50;;;28.61;38.02
57376;BME280;44805;45.048;5.062;2023-06-01T14:08:05;99454.19;;;28.61;37.55
57376;BME280;44805;45.048;5.062;2023-06-01T14:10:33;99470.69;;;28.59;36.01
57376;BME280;44805;45.048;5.062;2023-06-01T14:12:59;99447.16;;;28.29;35.63
57376;BME280;44805;45.048;5.062;2023-06-01T14:15:25;99440.94;;;28.28;36.78
57376;BME280;44805;45.048;5.062;2023-06-01T14:17:51;99453.91;;;28.42;37.17
57376;BME280;44805;45.048;5.062;2023-06-01T14:20:16;99468.00;;;28.28;37.75
57376;BME280;44805;45.048;5.062;2023-06-01T14:22:42;99414.69;;;27.98;37.16
57376;BME280;44805;45.048;5.062;2023-06-01T14:25:08;99378.13;;;27.44;36.88
57376;BME280;44805;45.048;5.062;2023-06-01T14:27:34;99423.38;;;27.90;36.60
57376;BME280;44805;45.048;5.062;2023-06-01T14:30:03;99446.63;;;28.42;37.04
57376;BME280;44805;45.048;5.062;2023-06-01T14:32:29;99362.47;;;28.03;37.49
57376;BME280;44805;45.048;5.062;2023-06-01T14:34:57;99438.78;;;28.25;37.94
57376;BME280;44805;45.048;5.062;2023-06-01T14:37:23;99389.81;;;27.91;37.66
57376;BME280;44805;45.048;5.062;2023-06-01T14:39:48;99397.63;;;28.18;37.86